Norfolk Naval Station (Chambers Field) (NGU/KNGU)





Airport Information
Location: Norfolk, Virginia
Coordinates: 36.9375 / -76.2893
Field Elevation: 15ft
Longest Runway: 7,074ft
ILS Approaches: YES
Landing Fees: $217 per flight
Jet A Price: $0.2/lbs
Charts:

Current Weather
METAR: KNGU 020459Z 31005KT 8SM FEW100 SCT300 25/22 A2988 RMK AO2 SLP117 T02500222 402780233 $
TAF: TAF COR KNGU 0123/0223 VRB06KT 9999 VCSH SCT020 SCT090 BKN130 QNH2977INS FM020500 VRB06KT 9999 FEW045 SCT100 QNH2984INS FM021000 33010KT 9999 FEW030 QNH2990INS T23/0206Z T28/0219Z COR 2310 FN00237

Recent Arrivals
Date Flight Type Depart
12/24/2019 CMB7584 B752 Guantánamo Bay Naval Air Station (MUGM)
10/15/2019 CMB802 B752 Joint Base McGuire Dix Lakehurst (KWRI)
09/14/2019 CMB802 B752 Joint Base McGuire Dix Lakehurst (KWRI)
06/09/2019 CMB802 B752 Joint Base McGuire Dix Lakehurst (KWRI)
03/05/2019 CMB802 B752 Joint Base McGuire Dix Lakehurst (KWRI)
Recent Departures
Date Flight Type Arrive
01/01/2020 CMB7531 B752 Keflavík International Airport (BIKF)
12/22/2019 CMB7583 B752 Guantánamo Bay Naval Air Station (MUGM)
09/16/2019 CMB805 B752 Joint Base McGuire Dix Lakehurst (KWRI)
06/13/2019 CMB841 B752 Naval Station Rota (LERT)
03/07/2019 CMB841 B752 Naval Station Rota (LERT)